createdAt,value
2023-02-22T00:02:11.925Z,10.30
2023-02-22T00:13:44.840Z,10.00
2023-02-22T00:19:17.013Z,10.00
2023-02-22T00:25:08.435Z,10.00
2023-02-22T00:30:58.898Z,10.00
2023-02-22T00:42:28.832Z,9.80
2023-02-22T00:48:29.735Z,9.50
2023-02-22T00:53:42.419Z,9.30
2023-02-22T00:58:45.542Z,9.20
2023-02-22T01:03:48.191Z,9.30
2023-02-22T01:08:52.342Z,9.30
2023-02-22T01:13:55.454Z,9.30
2023-02-22T01:18:58.134Z,9.30
2023-02-22T01:24:02.179Z,9.30
2023-02-22T01:29:05.043Z,9.40
2023-02-22T01:34:07.709Z,9.40
2023-02-22T01:39:12.278Z,9.40
2023-02-22T01:44:27.745Z,9.50
2023-02-22T01:49:34.915Z,9.50
2023-02-22T01:54:42.323Z,9.60
2023-02-22T01:59:50.076Z,9.70
2023-02-22T02:04:54.442Z,9.70
2023-02-22T02:10:00.861Z,9.70
2023-02-22T02:15:21.816Z,9.70
2023-02-22T02:20:28.883Z,9.70
2023-02-22T02:26:03.858Z,9.70
2023-02-22T02:31:31.942Z,9.70
2023-02-22T02:36:44.417Z,9.70
2023-02-22T02:41:50.508Z,9.70
2023-02-22T02:46:57.637Z,9.70
2023-02-22T02:52:03.719Z,9.70
2023-02-22T02:57:06.881Z,9.80
2023-02-22T03:02:27.177Z,9.80
2023-02-22T03:07:46.838Z,9.80
2023-02-22T03:12:59.326Z,9.70
2023-02-22T03:18:06.702Z,9.70
2023-02-22T03:23:16.555Z,9.70
2023-02-22T03:28:22.497Z,9.60
2023-02-22T03:33:33.867Z,9.60
2023-02-22T03:38:40.130Z,9.60
2023-02-22T03:43:46.780Z,9.50
2023-02-22T03:48:54.086Z,9.50
2023-02-22T03:53:58.349Z,9.60
2023-02-22T03:59:01.178Z,9.60
2023-02-22T04:04:04.602Z,9.70
2023-02-22T04:09:08.615Z,9.70
2023-02-22T04:14:11.295Z,9.50
2023-02-22T04:19:13.984Z,9.20
2023-02-22T04:24:18.073Z,8.80
2023-02-22T04:29:20.711Z,8.50
2023-02-22T04:34:23.411Z,8.30
2023-02-22T04:39:27.469Z,8.20
2023-02-22T04:44:30.215Z,8.10
2023-02-22T04:49:32.866Z,8.00
2023-02-22T04:54:36.882Z,8.10
2023-02-22T04:59:40.658Z,8.40
2023-02-22T05:04:43.415Z,8.60
2023-02-22T05:09:47.488Z,8.80
2023-02-22T05:14:50.231Z,9.10
2023-02-22T05:19:52.903Z,9.20
2023-02-22T05:24:57.554Z,9.10
2023-02-22T05:30:00.331Z,9.30
2023-02-22T05:35:08.357Z,9.40
2023-02-22T05:40:15.807Z,9.40
2023-02-22T05:45:20.013Z,9.30
2023-02-22T05:50:25.472Z,9.30
2023-02-22T05:55:56.450Z,9.30
2023-02-22T06:01:10.189Z,9.30
2023-02-22T06:07:05.423Z,9.40
2023-02-22T06:12:41.856Z,9.30
2023-02-22T06:18:06.774Z,9.20
2023-02-22T06:23:46.727Z,9.10
2023-02-22T06:29:07.167Z,9.10
2023-02-22T06:40:40.993Z,9.30
2023-02-22T06:46:34.897Z,9.30
2023-02-22T06:52:18.809Z,9.40
2023-02-22T06:57:54.965Z,9.50
2023-02-22T07:03:49.533Z,9.80
2023-02-22T07:09:36.694Z,9.80
2023-02-22T07:15:48.594Z,10.10
2023-02-22T07:21:12.145Z,10.20
2023-02-22T07:26:54.280Z,10.40
2023-02-22T07:32:23.774Z,10.60
2023-02-22T07:37:27.937Z,10.70
2023-02-22T07:42:32.315Z,11.00
2023-02-22T07:48:07.010Z,11.10
2023-02-22T07:53:36.273Z,11.10
2023-02-22T07:58:57.492Z,11.10
2023-02-22T08:04:16.625Z,11.00
2023-02-22T08:09:47.317Z,11.20
2023-02-22T08:15:16.758Z,11.30
2023-02-22T08:20:54.320Z,11.30
2023-02-22T08:26:40.560Z,11.40
2023-02-22T08:32:06.175Z,11.60
2023-02-22T08:37:47.845Z,11.40
2023-02-22T08:43:21.608Z,11.50
2023-02-22T08:48:43.777Z,11.80
2023-02-22T08:54:16.306Z,12.50
2023-02-22T08:59:46.292Z,12.60
2023-02-22T09:05:30.889Z,12.90
2023-02-22T09:11:12.772Z,13.50
2023-02-22T09:18:07.223Z,14.10
2023-02-22T09:23:37.136Z,14.60
2023-02-22T09:29:17.936Z,14.80
2023-02-22T09:41:04.811Z,14.80
2023-02-22T09:46:57.507Z,15.40
2023-02-22T09:52:23.250Z,15.40
2023-02-22T10:04:22.331Z,16.30
2023-02-22T10:10:15.430Z,17.00
2023-02-22T10:16:08.899Z,17.60
2023-02-22T10:28:17.199Z,23.30
2023-02-22T10:33:55.621Z,20.60
2023-02-22T10:39:38.052Z,18.30
2023-02-22T10:45:10.054Z,16.80
2023-02-22T10:50:47.776Z,15.80
2023-02-22T10:56:34.242Z,15.20
2023-02-22T11:02:01.895Z,14.90
2023-02-22T11:07:36.922Z,14.70
2023-02-22T11:13:29.591Z,15.60
2023-02-22T11:19:00.660Z,15.90
2023-02-22T11:24:48.357Z,16.10
2023-02-22T11:30:28.497Z,16.10
2023-02-22T11:36:02.451Z,16.30
2023-02-22T11:41:58.788Z,15.80
2023-02-22T11:47:24.091Z,15.60
2023-02-22T11:52:48.181Z,16.00
2023-02-22T11:58:27.260Z,16.20
2023-02-22T12:04:10.522Z,16.90
2023-02-22T12:09:54.903Z,16.40
2023-02-22T12:15:33.112Z,16.20
2023-02-22T12:21:00.376Z,16.60
2023-02-22T12:26:27.055Z,17.00
2023-02-22T12:31:55.081Z,17.30
2023-02-22T12:37:24.562Z,17.50
2023-02-22T12:43:28.768Z,17.30
2023-02-22T12:48:44.210Z,16.90
2023-02-22T12:54:16.088Z,16.50
2023-02-22T13:00:10.627Z,16.50
2023-02-22T13:11:20.317Z,16.30
2023-02-22T13:17:15.949Z,16.50
2023-02-22T13:22:39.298Z,16.80
2023-02-22T13:28:00.195Z,17.00
2023-02-22T13:33:39.733Z,17.00
2023-02-22T13:39:15.422Z,16.60
2023-02-22T13:45:03.536Z,16.70
2023-02-22T13:50:43.190Z,16.70
2023-02-22T13:56:11.911Z,16.50
2023-02-22T14:02:03.304Z,16.10
2023-02-22T14:08:13.125Z,15.60
2023-02-22T14:13:41.634Z,14.90
2023-02-22T14:25:28.124Z,14.40
2023-02-22T14:31:38.597Z,14.60
2023-02-22T14:37:22.387Z,14.50
2023-02-22T14:48:49.351Z,14.40
2023-02-22T15:00:53.703Z,14.30
2023-02-22T15:06:20.748Z,14.20
2023-02-22T15:11:50.819Z,14.10
2023-02-22T15:17:14.236Z,14.10
2023-02-22T15:23:48.997Z,13.90
2023-02-22T15:29:22.443Z,14.00
2023-02-22T15:35:28.725Z,14.10
2023-02-22T15:40:43.360Z,14.30
2023-02-22T15:46:07.891Z,14.20
2023-02-22T15:51:50.918Z,13.90
2023-02-22T15:57:27.593Z,13.30
2023-02-22T16:09:52.672Z,12.50
2023-02-22T17:00:32.418Z,10.50
2023-02-22T17:38:18.616Z,10.00
2023-02-22T17:38:41.705Z,10.20
2023-02-22T18:01:26.278Z,9.70
2023-02-22T18:32:46.647Z,9.70
2023-02-22T18:38:14.864Z,9.60
2023-02-22T18:50:09.737Z,9.60
2023-02-22T18:55:54.477Z,9.60
2023-02-22T19:01:49.842Z,9.50
2023-02-22T19:26:03.430Z,9.30
2023-02-22T21:55:07.168Z,8.90
2023-02-22T22:01:00.905Z,8.90
2023-02-22T22:12:09.093Z,8.90
2023-02-22T22:17:42.548Z,9.00
2023-02-22T22:23:13.356Z,8.90
2023-02-22T22:28:35.121Z,8.90
2023-02-22T22:33:52.445Z,8.90
2023-02-22T22:44:49.019Z,8.90
2023-02-22T22:50:14.193Z,8.90
2023-02-22T22:55:34.221Z,8.90
2023-02-22T23:00:58.569Z,8.80
2023-02-22T23:06:25.913Z,8.80
2023-02-22T23:11:43.920Z,8.80
2023-02-22T23:17:13.968Z,8.80
2023-02-22T23:22:40.485Z,8.70
2023-02-22T23:27:51.558Z,8.80
2023-02-22T23:38:48.767Z,8.80
2023-02-22T23:44:14.984Z,8.80
2023-02-22T23:49:46.891Z,8.70
2023-02-22T23:55:07.733Z,8.70
